Lakeport, California
Current Conditions -  °F | °C
As of 10:56 PM on Thursday 27 Nov 2014 (Local Time) from KUKI Reporting Station
Clear Clear  
Wind Chill: 41°   Ceiling: Unl
Heat Index: 41°   Visibility: 10mi
Dew Point: 37°   Wind: 0mph
Humidity: 86%   Direction: NA
Pressure: 30.07"   Gusts: NA
Location:  39.04°N, 122.92°W
Report Text: KUKI 280656Z AUTO 00000KT 10SM CLR 05/03 A3007 RMK AO2 SLP179 T00500028
Loading
Personal Weather Stations






























Interactive Weather Map New forecast layout! Learn more

10-Day Weather Forecast

Advertisements
Track Severe Weather on mobile